sensor_id;sensor_type;location;lat;lon;timestamp;temperature;humidity
18335;DHT22;9293;49.524;10.964;2023-04-01T00:00:33;8.90;99.90
18335;DHT22;9293;49.524;10.964;2023-04-01T00:03:02;8.90;99.90
18335;DHT22;9293;49.524;10.964;2023-04-01T00:05:30;9.00;99.90
18335;DHT22;9293;49.524;10.964;2023-04-01T00:08:01;9.00;99.90
18335;DHT22;9293;49.524;10.964;2023-04-01T00:10:29;9.10;99.90
18335;DHT22;9293;49.524;10.964;2023-04-01T00:12:57;9.10;99.90
18335;DHT22;9293;49.524;10.964;2023-04-01T00:15:25;9.20;99.90
18335;DHT22;9293;49.524;10.964;2023-04-01T00:17:53;9.20;99.90
18335;DHT22;9293;49.524;10.964;2023-04-01T00:20:22;9.20;99.90
18335;DHT22;9293;49.524;10.964;2023-04-01T00:22:50;9.20;99.90
18335;DHT22;9293;49.524;10.964;2023-04-01T00:25:18;9.20;99.90
18335;DHT22;9293;49.524;10.964;2023-04-01T00:27:46;9.20;99.90
18335;DHT22;9293;49.524;10.964;2023-04-01T00:30:14;9.20;99.90
18335;DHT22;9293;49.524;10.964;2023-04-01T00:32:42;9.30;99.90
18335;DHT22;9293;49.524;10.964;2023-04-01T00:35:10;9.30;99.90
18335;DHT22;9293;49.524;10.964;2023-04-01T00:37:40;9.30;99.90
18335;DHT22;9293;49.524;10.964;2023-04-01T00:40:11;9.40;99.90
18335;DHT22;9293;49.524;10.964;2023-04-01T00:42:48;9.40;99.90
18335;DHT22;9293;49.524;10.964;2023-04-01T00:45:23;9.40;99.90
18335;DHT22;9293;49.524;10.964;2023-04-01T00:47:53;9.40;99.90
18335;DHT22;9293;49.524;10.964;2023-04-01T00:50:22;9.50;99.90
18335;DHT22;9293;49.524;10.964;2023-04-01T00:52:52;9.40;99.90
18335;DHT22;9293;49.524;10.964;2023-04-01T00:55:21;9.50;99.90
18335;DHT22;9293;49.524;10.964;2023-04-01T00:57:49;9.50;99.90
18335;DHT22;9293;49.524;10.964;2023-04-01T01:00:18;9.50;99.90
18335;DHT22;9293;49.524;10.964;2023-04-01T01:02:46;9.50;99.90
18335;DHT22;9293;49.524;10.964;2023-04-01T01:05:15;9.50;99.90
18335;DHT22;9293;49.524;10.964;2023-04-01T01:07:51;9.50;99.90
18335;DHT22;9293;49.524;10.964;2023-04-01T01:10:32;9.50;99.90
18335;DHT22;9293;49.524;10.964;2023-04-01T01:21:46;9.60;99.90
18335;DHT22;9293;49.524;10.964;2023-04-01T01:24:25;9.50;99.90
18335;DHT22;9293;49.524;10.964;2023-04-01T01:27:02;9.50;99.90
18335;DHT22;9293;49.524;10.964;2023-04-01T01:35:10;9.50;99.90
18335;DHT22;9293;49.524;10.964;2023-04-01T01:37:40;9.50;99.90
18335;DHT22;9293;49.524;10.964;2023-04-01T01:40:10;9.50;99.90
18335;DHT22;9293;49.524;10.964;2023-04-01T01:42:43;9.50;99.90
18335;DHT22;9293;49.524;10.964;2023-04-01T01:45:11;9.50;99.90
18335;DHT22;9293;49.524;10.964;2023-04-01T01:47:40;9.50;99.90
18335;DHT22;9293;49.524;10.964;2023-04-01T01:50:10;9.50;99.90
18335;DHT22;9293;49.524;10.964;2023-04-01T01:52:39;9.50;99.90
18335;DHT22;9293;49.524;10.964;2023-04-01T01:55:28;9.50;99.90
18335;DHT22;9293;49.524;10.964;2023-04-01T01:57:58;9.50;99.90
18335;DHT22;9293;49.524;10.964;2023-04-01T02:00:27;9.50;99.90
18335;DHT22;9293;49.524;10.964;2023-04-01T02:02:56;9.50;99.90
18335;DHT22;9293;49.524;10.964;2023-04-01T02:05:25;9.50;99.90
18335;DHT22;9293;49.524;10.964;2023-04-01T02:08:11;9.50;99.90
18335;DHT22;9293;49.524;10.964;2023-04-01T02:10:41;9.50;99.90
18335;DHT22;9293;49.524;10.964;2023-04-01T02:13:29;9.50;99.90
18335;DHT22;9293;49.524;10.964;2023-04-01T02:16:00;9.50;99.90
18335;DHT22;9293;49.524;10.964;2023-04-01T02:18:30;9.50;99.90
18335;DHT22;9293;49.524;10.964;2023-04-01T02:20:59;9.50;99.90
18335;DHT22;9293;49.524;10.964;2023-04-01T02:23:28;9.50;99.90
18335;DHT22;9293;49.524;10.964;2023-04-01T02:25:56;9.50;99.90
18335;DHT22;9293;49.524;10.964;2023-04-01T02:28:25;9.60;99.90
18335;DHT22;9293;49.524;10.964;2023-04-01T02:30:53;9.50;99.90
18335;DHT22;9293;49.524;10.964;2023-04-01T02:33:21;9.50;99.90
18335;DHT22;9293;49.524;10.964;2023-04-01T02:35:49;9.60;99.90
18335;DHT22;9293;49.524;10.964;2023-04-01T02:38:18;9.60;99.90
18335;DHT22;9293;49.524;10.964;2023-04-01T02:40:47;9.50;99.90
18335;DHT22;9293;49.524;10.964;2023-04-01T02:43:16;9.60;99.90
18335;DHT22;9293;49.524;10.964;2023-04-01T02:45:44;9.50;99.90
18335;DHT22;9293;49.524;10.964;2023-04-01T02:48:12;9.50;99.90
18335;DHT22;9293;49.524;10.964;2023-04-01T02:50:41;9.50;99.90
18335;DHT22;9293;49.524;10.964;2023-04-01T02:53:10;9.60;99.90
18335;DHT22;9293;49.524;10.964;2023-04-01T02:55:39;9.60;99.90
18335;DHT22;9293;49.524;10.964;2023-04-01T02:58:10;9.60;99.90
18335;DHT22;9293;49.524;10.964;2023-04-01T03:00:42;9.60;99.90
18335;DHT22;9293;49.524;10.964;2023-04-01T03:03:10;9.60;99.90
18335;DHT22;9293;49.524;10.964;2023-04-01T03:05:39;9.50;99.90
18335;DHT22;9293;49.524;10.964;2023-04-01T03:08:07;9.50;99.90
18335;DHT22;9293;49.524;10.964;2023-04-01T03:10:35;9.50;99.90
18335;DHT22;9293;49.524;10.964;2023-04-01T03:13:03;9.50;99.90
18335;DHT22;9293;49.524;10.964;2023-04-01T03:15:31;9.50;99.90
18335;DHT22;9293;49.524;10.964;2023-04-01T03:18:00;9.50;99.90
18335;DHT22;9293;49.524;10.964;2023-04-01T03:20:28;9.50;99.90
18335;DHT22;9293;49.524;10.964;2023-04-01T03:22:56;9.50;99.90
18335;DHT22;9293;49.524;10.964;2023-04-01T03:25:26;9.50;99.90
18335;DHT22;9293;49.524;10.964;2023-04-01T03:27:56;9.50;99.90
18335;DHT22;9293;49.524;10.964;2023-04-01T03:30:27;9.50;99.90
18335;DHT22;9293;49.524;10.964;2023-04-01T03:32:56;9.50;99.90
18335;DHT22;9293;49.524;10.964;2023-04-01T03:35:24;9.40;99.90
18335;DHT22;9293;49.524;10.964;2023-04-01T03:37:52;9.40;99.90
18335;DHT22;9293;49.524;10.964;2023-04-01T03:40:20;9.40;99.90
18335;DHT22;9293;49.524;10.964;2023-04-01T03:42:49;9.40;99.90
18335;DHT22;9293;49.524;10.964;2023-04-01T03:45:18;9.40;99.90
18335;DHT22;9293;49.524;10.964;2023-04-01T03:47:46;9.40;99.90
18335;DHT22;9293;49.524;10.964;2023-04-01T03:50:14;9.40;99.90
18335;DHT22;9293;49.524;10.964;2023-04-01T03:52:43;9.40;99.90
18335;DHT22;9293;49.524;10.964;2023-04-01T03:55:11;9.40;99.90
18335;DHT22;9293;49.524;10.964;2023-04-01T03:57:39;9.40;99.90
18335;DHT22;9293;49.524;10.964;2023-04-01T04:00:16;9.40;99.90
18335;DHT22;9293;49.524;10.964;2023-04-01T04:02:48;9.40;99.90
18335;DHT22;9293;49.524;10.964;2023-04-01T04:05:23;9.40;99.90
18335;DHT22;9293;49.524;10.964;2023-04-01T04:07:51;9.40;99.90
18335;DHT22;9293;49.524;10.964;2023-04-01T04:10:20;9.40;99.90
18335;DHT22;9293;49.524;10.964;2023-04-01T04:12:48;9.40;99.90
18335;DHT22;9293;49.524;10.964;2023-04-01T04:15:18;9.40;99.90
18335;DHT22;9293;49.524;10.964;2023-04-01T04:17:48;9.30;99.90
18335;DHT22;9293;49.524;10.964;2023-04-01T04:20:20;9.40;99.90
18335;DHT22;9293;49.524;10.964;2023-04-01T04:22:49;9.30;99.90
18335;DHT22;9293;49.524;10.964;2023-04-01T04:25:18;9.40;99.90
18335;DHT22;9293;49.524;10.964;2023-04-01T04:27:46;9.40;99.90
18335;DHT22;9293;49.524;10.964;2023-04-01T04:30:14;9.40;99.90
18335;DHT22;9293;49.524;10.964;2023-04-01T04:32:43;9.40;99.90
18335;DHT22;9293;49.524;10.964;2023-04-01T04:35:12;9.40;99.90
18335;DHT22;9293;49.524;10.964;2023-04-01T04:37:40;9.40;99.90
18335;DHT22;9293;49.524;10.964;2023-04-01T04:40:09;9.40;99.90
18335;DHT22;9293;49.524;10.964;2023-04-01T04:42:38;9.40;99.90
18335;DHT22;9293;49.524;10.964;2023-04-01T04:45:11;9.40;99.90
18335;DHT22;9293;49.524;10.964;2023-04-01T04:47:48;9.30;99.90
18335;DHT22;9293;49.524;10.964;2023-04-01T04:50:16;9.30;99.90
18335;DHT22;9293;49.524;10.964;2023-04-01T04:52:45;9.30;99.90
18335;DHT22;9293;49.524;10.964;2023-04-01T04:55:13;9.30;99.90
18335;DHT22;9293;49.524;10.964;2023-04-01T04:57:46;9.20;99.90
18335;DHT22;9293;49.524;10.964;2023-04-01T05:00:15;9.20;99.90
18335;DHT22;9293;49.524;10.964;2023-04-01T05:02:48;9.20;99.90
18335;DHT22;9293;49.524;10.964;2023-04-01T05:05:17;9.10;99.90
18335;DHT22;9293;49.524;10.964;2023-04-01T05:07:45;9.10;99.90
18335;DHT22;9293;49.524;10.964;2023-04-01T05:10:13;9.10;99.90
18335;DHT22;9293;49.524;10.964;2023-04-01T05:12:41;9.10;99.90
18335;DHT22;9293;49.524;10.964;2023-04-01T05:15:14;9.10;99.90
18335;DHT22;9293;49.524;10.964;2023-04-01T05:17:43;9.10;99.90
18335;DHT22;9293;49.524;10.964;2023-04-01T05:20:12;9.10;99.90
18335;DHT22;9293;49.524;10.964;2023-04-01T05:22:40;9.10;99.90
18335;DHT22;9293;49.524;10.964;2023-04-01T05:25:12;9.10;99.90
18335;DHT22;9293;49.524;10.964;2023-04-01T05:27:41;9.10;99.90
18335;DHT22;9293;49.524;10.964;2023-04-01T05:30:10;9.10;99.90
18335;DHT22;9293;49.524;10.964;2023-04-01T05:32:44;9.10;99.90
18335;DHT22;9293;49.524;10.964;2023-04-01T05:35:12;9.10;99.90
18335;DHT22;9293;49.524;10.964;2023-04-01T05:37:40;9.10;99.90
18335;DHT22;9293;49.524;10.964;2023-04-01T05:40:09;9.10;99.90
18335;DHT22;9293;49.524;10.964;2023-04-01T05:42:37;9.10;99.90
18335;DHT22;9293;49.524;10.964;2023-04-01T05:45:05;9.10;99.90
18335;DHT22;9293;49.524;10.964;2023-04-01T05:47:52;9.20;99.90
18335;DHT22;9293;49.524;10.964;2023-04-01T05:50:20;9.20;99.90
18335;DHT22;9293;49.524;10.964;2023-04-01T05:52:48;9.30;99.90
18335;DHT22;9293;49.524;10.964;2023-04-01T05:55:17;9.20;99.90
18335;DHT22;9293;49.524;10.964;2023-04-01T05:57:45;9.20;99.90
18335;DHT22;9293;49.524;10.964;2023-04-01T06:00:14;9.20;99.90
18335;DHT22;9293;49.524;10.964;2023-04-01T06:02:43;9.20;99.90
18335;DHT22;9293;49.524;10.964;2023-04-01T06:07:40;9.20;99.90
18335;DHT22;9293;49.524;10.964;2023-04-01T06:10:18;9.20;99.90
18335;DHT22;9293;49.524;10.964;2023-04-01T06:20:51;9.40;99.90
18335;DHT22;9293;49.524;10.964;2023-04-01T06:36:24;10.00;99.90
18335;DHT22;9293;49.524;10.964;2023-04-01T06:44:20;10.20;99.90
18335;DHT22;9293;49.524;10.964;2023-04-01T06:53:35;10.30;99.90
18335;DHT22;9293;49.524;10.964;2023-04-01T06:56:09;10.20;99.90
18335;DHT22;9293;49.524;10.964;2023-04-01T06:59:04;10.30;99.90
18335;DHT22;9293;49.524;10.964;2023-04-01T07:01:45;10.10;99.90
18335;DHT22;9293;49.524;10.964;2023-04-01T07:04:20;10.10;99.90
18335;DHT22;9293;49.524;10.964;2023-04-01T07:07:04;10.10;99.90
18335;DHT22;9293;49.524;10.964;2023-04-01T07:09:41;10.20;99.90
18335;DHT22;9293;49.524;10.964;2023-04-01T07:12:42;10.30;99.90
18335;DHT22;9293;49.524;10.964;2023-04-01T07:15:22;10.30;99.90
18335;DHT22;9293;49.524;10.964;2023-04-01T07:17:54;10.40;99.90
18335;DHT22;9293;49.524;10.964;2023-04-01T07:20:27;10.40;99.90
18335;DHT22;9293;49.524;10.964;2023-04-01T07:23:04;10.40;99.90
18335;DHT22;9293;49.524;10.964;2023-04-01T07:25:54;10.40;99.90
18335;DHT22;9293;49.524;10.964;2023-04-01T07:28:42;10.50;99.90
18335;DHT22;9293;49.524;10.964;2023-04-01T07:34:06;10.60;99.90
18335;DHT22;9293;49.524;10.964;2023-04-01T07:36:53;10.80;99.90
18335;DHT22;9293;49.524;10.964;2023-04-01T07:39:44;10.90;99.90
18335;DHT22;9293;49.524;10.964;2023-04-01T07:42:31;10.90;99.90
18335;DHT22;9293;49.524;10.964;2023-04-01T07:50:32;11.00;99.90
18335;DHT22;9293;49.524;10.964;2023-04-01T07:53:13;10.80;99.90
18335;DHT22;9293;49.524;10.964;2023-04-01T07:55:51;10.60;99.90
18335;DHT22;9293;49.524;10.964;2023-04-01T08:12:02;11.00;99.90
18335;DHT22;9293;49.524;10.964;2023-04-01T08:14:53;11.00;99.90
18335;DHT22;9293;49.524;10.964;2023-04-01T08:23:18;11.10;99.90
18335;DHT22;9293;49.524;10.964;2023-04-01T08:25:53;11.20;99.90
18335;DHT22;9293;49.524;10.964;2023-04-01T08:28:34;11.30;99.90
18335;DHT22;9293;49.524;10.964;2023-04-01T08:31:09;11.20;99.90
18335;DHT22;9293;49.524;10.964;2023-04-01T08:33:42;11.10;99.90
18335;DHT22;9293;49.524;10.964;2023-04-01T08:36:29;11.20;99.90
18335;DHT22;9293;49.524;10.964;2023-04-01T08:39:09;11.10;99.90
18335;DHT22;9293;49.524;10.964;2023-04-01T08:47:33;11.10;99.90
18335;DHT22;9293;49.524;10.964;2023-04-01T08:52:58;11.10;99.90
18335;DHT22;9293;49.524;10.964;2023-04-01T08:55:31;11.10;99.90
18335;DHT22;9293;49.524;10.964;2023-04-01T08:58:18;11.10;99.90
18335;DHT22;9293;49.524;10.964;2023-04-01T09:01:26;11.20;99.90
18335;DHT22;9293;49.524;10.964;2023-04-01T09:06:36;11.30;99.90
18335;DHT22;9293;49.524;10.964;2023-04-01T09:11:43;11.20;99.90
18335;DHT22;9293;49.524;10.964;2023-04-01T09:14:33;11.10;99.90
18335;DHT22;9293;49.524;10.964;2023-04-01T09:23:10;11.30;99.90
18335;DHT22;9293;49.524;10.964;2023-04-01T09:28:37;11.30;99.90
18335;DHT22;9293;49.524;10.964;2023-04-01T09:31:23;11.20;99.90
18335;DHT22;9293;49.524;10.964;2023-04-01T09:37:21;11.10;99.90
18335;DHT22;9293;49.524;10.964;2023-04-01T09:40:09;11.10;99.90
18335;DHT22;9293;49.524;10.964;2023-04-01T09:42:51;11.00;99.90
18335;DHT22;9293;49.524;10.964;2023-04-01T09:50:31;10.90;99.90
18335;DHT22;9293;49.524;10.964;2023-04-01T09:53:07;11.10;99.90
18335;DHT22;9293;49.524;10.964;2023-04-01T09:55:50;11.00;99.90
18335;DHT22;9293;49.524;10.964;2023-04-01T09:58:42;11.00;99.90
18335;DHT22;9293;49.524;10.964;2023-04-01T10:04:02;10.80;99.90
18335;DHT22;9293;49.524;10.964;2023-04-01T10:07:04;10.80;99.90
18335;DHT22;9293;49.524;10.964;2023-04-01T10:20:12;10.70;99.90
18335;DHT22;9293;49.524;10.964;2023-04-01T10:28:24;10.50;99.90
18335;DHT22;9293;49.524;10.964;2023-04-01T10:31:33;10.60;99.90
18335;DHT22;9293;49.524;10.964;2023-04-01T10:36:54;10.70;99.90
18335;DHT22;9293;49.524;10.964;2023-04-01T10:50:54;10.60;99.90
18335;DHT22;9293;49.524;10.964;2023-04-01T11:26:48;10.20;99.90
18335;DHT22;9293;49.524;10.964;2023-04-01T11:32:36;10.10;99.90
18335;DHT22;9293;49.524;10.964;2023-04-01T11:41:01;10.30;99.90
18335;DHT22;9293;49.524;10.964;2023-04-01T11:58:07;10.60;99.90
18335;DHT22;9293;49.524;10.964;2023-04-01T12:05:58;10.50;99.90
18335;DHT22;9293;49.524;10.964;2023-04-01T12:11:00;10.70;99.90
18335;DHT22;9293;49.524;10.964;2023-04-01T12:13:39;10.70;99.90
18335;DHT22;9293;49.524;10.964;2023-04-01T12:16:35;10.80;99.90
18335;DHT22;9293;49.524;10.964;2023-04-01T12:27:05;10.80;99.90
18335;DHT22;9293;49.524;10.964;2023-04-01T12:42:36;10.90;99.90
18335;DHT22;9293;49.524;10.964;2023-04-01T12:50:16;10.70;99.90
18335;DHT22;9293;49.524;10.964;2023-04-01T12:58:01;10.80;99.90
18335;DHT22;9293;49.524;10.964;2023-04-01T13:05:38;10.60;99.90
18335;DHT22;9293;49.524;10.964;2023-04-01T13:10:49;10.40;99.90
18335;DHT22;9293;49.524;10.964;2023-04-01T13:15:55;10.50;99.90
18335;DHT22;9293;49.524;10.964;2023-04-01T13:18:50;10.50;99.90
18335;DHT22;9293;49.524;10.964;2023-04-01T13:24:07;10.50;99.90
18335;DHT22;9293;49.524;10.964;2023-04-01T13:29:21;10.60;99.90
18335;DHT22;9293;49.524;10.964;2023-04-01T13:34:32;10.40;99.90
18335;DHT22;9293;49.524;10.964;2023-04-01T13:39:57;10.60;99.90
18335;DHT22;9293;49.524;10.964;2023-04-01T13:42:36;10.70;99.90
18335;DHT22;9293;49.524;10.964;2023-04-01T13:55:20;10.70;99.90
18335;DHT22;9293;49.524;10.964;2023-04-01T14:14:21;10.60;99.90
18335;DHT22;9293;49.524;10.964;2023-04-01T14:27:12;10.60;99.90
18335;DHT22;9293;49.524;10.964;2023-04-01T14:30:20;10.50;99.90
18335;DHT22;9293;49.524;10.964;2023-04-01T14:32:55;10.40;99.90
18335;DHT22;9293;49.524;10.964;2023-04-01T14:38:04;10.40;99.90
18335;DHT22;9293;49.524;10.964;2023-04-01T14:40:45;10.40;99.90
18335;DHT22;9293;49.524;10.964;2023-04-01T14:46:08;10.30;99.90
18335;DHT22;9293;49.524;10.964;2023-04-01T14:48:53;10.40;99.90
18335;DHT22;9293;49.524;10.964;2023-04-01T14:51:34;10.40;99.90
18335;DHT22;9293;49.524;10.964;2023-04-01T14:59:15;10.30;99.90
18335;DHT22;9293;49.524;10.964;2023-04-01T15:01:47;10.30;99.90
18335;DHT22;9293;49.524;10.964;2023-04-01T15:12:06;10.50;99.90
18335;DHT22;9293;49.524;10.964;2023-04-01T15:14:38;10.50;99.90
18335;DHT22;9293;49.524;10.964;2023-04-01T15:20:02;10.60;99.90
18335;DHT22;9293;49.524;10.964;2023-04-01T15:30:28;10.50;99.90
18335;DHT22;9293;49.524;10.964;2023-04-01T15:44:24;10.40;99.90
18335;DHT22;9293;49.524;10.964;2023-04-01T15:46:58;10.40;99.90
18335;DHT22;9293;49.524;10.964;2023-04-01T15:49:42;10.30;99.90
18335;DHT22;9293;49.524;10.964;2023-04-01T15:52:16;10.20;99.90
18335;DHT22;9293;49.524;10.964;2023-04-01T16:02:46;10.20;99.90
18335;DHT22;9293;49.524;10.964;2023-04-01T16:10:35;10.00;99.90
18335;DHT22;9293;49.524;10.964;2023-04-01T16:13:28;9.90;99.90
18335;DHT22;9293;49.524;10.964;2023-04-01T16:21:06;9.90;99.90
18335;DHT22;9293;49.524;10.964;2023-04-01T16:23:51;9.90;99.90
18335;DHT22;9293;49.524;10.964;2023-04-01T16:34:18;9.90;99.90
18335;DHT22;9293;49.524;10.964;2023-04-01T16:36:54;9.90;99.90
18335;DHT22;9293;49.524;10.964;2023-04-01T16:39:36;9.90;99.90
18335;DHT22;9293;49.524;10.964;2023-04-01T16:42:26;9.90;99.90
18335;DHT22;9293;49.524;10.964;2023-04-01T16:45:00;9.80;99.90
18335;DHT22;9293;49.524;10.964;2023-04-01T16:47:50;9.80;99.90
18335;DHT22;9293;49.524;10.964;2023-04-01T16:58:42;9.80;99.90
18335;DHT22;9293;49.524;10.964;2023-04-01T17:01:16;9.80;99.90
18335;DHT22;9293;49.524;10.964;2023-04-01T17:03:46;9.80;99.90
18335;DHT22;9293;49.524;10.964;2023-04-01T17:11:42;9.70;99.90
18335;DHT22;9293;49.524;10.964;2023-04-01T17:14:19;9.70;99.90
18335;DHT22;9293;49.524;10.964;2023-04-01T17:24:46;9.70;99.90
18335;DHT22;9293;49.524;10.964;2023-04-01T17:40:34;9.60;99.90
18335;DHT22;9293;49.524;10.964;2023-04-01T17:43:18;9.60;99.90
18335;DHT22;9293;49.524;10.964;2023-04-01T17:45:56;9.60;99.90
18335;DHT22;9293;49.524;10.964;2023-04-01T17:54:03;9.60;99.90
18335;DHT22;9293;49.524;10.964;2023-04-01T17:56:37;9.60;99.90
18335;DHT22;9293;49.524;10.964;2023-04-01T17:59:18;9.50;99.90
18335;DHT22;9293;49.524;10.964;2023-04-01T18:25:50;9.40;99.90
18335;DHT22;9293;49.524;10.964;2023-04-01T18:31:08;9.50;99.90
18335;DHT22;9293;49.524;10.964;2023-04-01T18:41:55;9.50;99.90
18335;DHT22;9293;49.524;10.964;2023-04-01T18:52:28;9.40;99.90
18335;DHT22;9293;49.524;10.964;2023-04-01T19:00:19;9.40;99.90
18335;DHT22;9293;49.524;10.964;2023-04-01T19:05:19;9.40;99.90
18335;DHT22;9293;49.524;10.964;2023-04-01T19:07:49;9.40;99.90
18335;DHT22;9293;49.524;10.964;2023-04-01T19:15:34;9.40;99.90
18335;DHT22;9293;49.524;10.964;2023-04-01T19:26:25;9.40;99.90
18335;DHT22;9293;49.524;10.964;2023-04-01T19:36:50;9.40;99.90
18335;DHT22;9293;49.524;10.964;2023-04-01T19:39:27;9.40;99.90
18335;DHT22;9293;49.524;10.964;2023-04-01T19:44:41;9.30;99.90
18335;DHT22;9293;49.524;10.964;2023-04-01T20:00:15;9.40;99.90
18335;DHT22;9293;49.524;10.964;2023-04-01T20:05:27;9.40;99.90
18335;DHT22;9293;49.524;10.964;2023-04-01T20:08:00;9.50;99.90
18335;DHT22;9293;49.524;10.964;2023-04-01T20:13:25;9.40;99.90
18335;DHT22;9293;49.524;10.964;2023-04-01T20:15:58;9.50;99.90
18335;DHT22;9293;49.524;10.964;2023-04-01T20:21:49;9.50;99.90
18335;DHT22;9293;49.524;10.964;2023-04-01T20:23:55;9.50;99.90
18335;DHT22;9293;49.524;10.964;2023-04-01T20:26:27;9.50;99.90
18335;DHT22;9293;49.524;10.964;2023-04-01T20:29:05;9.50;99.90
18335;DHT22;9293;49.524;10.964;2023-04-01T20:31:36;9.50;99.90
18335;DHT22;9293;49.524;10.964;2023-04-01T20:34:18;9.50;99.90
18335;DHT22;9293;49.524;10.964;2023-04-01T20:36:54;9.50;99.90
18335;DHT22;9293;49.524;10.964;2023-04-01T20:47:53;9.50;99.90
18335;DHT22;9293;49.524;10.964;2023-04-01T20:58:35;9.50;99.90
18335;DHT22;9293;49.524;10.964;2023-04-01T21:03:40;9.40;99.90
18335;DHT22;9293;49.524;10.964;2023-04-01T21:14:45;9.40;99.90
18335;DHT22;9293;49.524;10.964;2023-04-01T21:16:50;9.40;99.90
18335;DHT22;9293;49.524;10.964;2023-04-01T21:27:18;9.30;99.90
18335;DHT22;9293;49.524;10.964;2023-04-01T21:38:13;9.30;99.90
18335;DHT22;9293;49.524;10.964;2023-04-01T21:57:01;9.30;99.90
18335;DHT22;9293;49.524;10.964;2023-04-01T22:05:10;9.30;99.90
18335;DHT22;9293;49.524;10.964;2023-04-01T22:10:21;9.30;99.90
18335;DHT22;9293;49.524;10.964;2023-04-01T22:12:53;9.30;99.90
18335;DHT22;9293;49.524;10.964;2023-04-01T22:15:40;9.20;99.90
18335;DHT22;9293;49.524;10.964;2023-04-01T22:18:18;9.20;99.90
18335;DHT22;9293;49.524;10.964;2023-04-01T22:20:52;9.20;99.90
18335;DHT22;9293;49.524;10.964;2023-04-01T22:23:32;9.20;99.90
18335;DHT22;9293;49.524;10.964;2023-04-01T22:28:46;9.10;99.90
18335;DHT22;9293;49.524;10.964;2023-04-01T22:31:23;9.10;99.90
18335;DHT22;9293;49.524;10.964;2023-04-01T22:44:10;9.10;99.90
18335;DHT22;9293;49.524;10.964;2023-04-01T22:49:20;9.20;99.90
18335;DHT22;9293;49.524;10.964;2023-04-01T22:54:34;9.10;99.90
18335;DHT22;9293;49.524;10.964;2023-04-01T22:57:12;9.20;99.90
18335;DHT22;9293;49.524;10.964;2023-04-01T23:02:14;9.20;99.90
18335;DHT22;9293;49.524;10.964;2023-04-01T23:04:45;9.10;99.90
18335;DHT22;9293;49.524;10.964;2023-04-01T23:07:34;9.10;99.90
18335;DHT22;9293;49.524;10.964;2023-04-01T23:12:58;9.20;99.90
18335;DHT22;9293;49.524;10.964;2023-04-01T23:15:30;9.20;99.90
18335;DHT22;9293;49.524;10.964;2023-04-01T23:18:09;9.20;99.90
18335;DHT22;9293;49.524;10.964;2023-04-01T23:26:14;9.20;99.90
18335;DHT22;9293;49.524;10.964;2023-04-01T23:28:49;9.20;99.90
18335;DHT22;9293;49.524;10.964;2023-04-01T23:31:32;9.10;99.90
18335;DHT22;9293;49.524;10.964;2023-04-01T23:34:15;9.20;99.90
18335;DHT22;9293;49.524;10.964;2023-04-01T23:36:45;9.20;99.90
18335;DHT22;9293;49.524;10.964;2023-04-01T23:41:50;9.10;99.90
18335;DHT22;9293;49.524;10.964;2023-04-01T23:44:18;9.20;99.90
18335;DHT22;9293;49.524;10.964;2023-04-01T23:46:47;9.20;99.90
18335;DHT22;9293;49.524;10.964;2023-04-01T23:49:21;9.20;99.90
18335;DHT22;9293;49.524;10.964;2023-04-01T23:52:10;9.10;99.90
18335;DHT22;9293;49.524;10.964;2023-04-01T23:54:44;9.20;99.90
18335;DHT22;9293;49.524;10.964;2023-04-01T23:57:18;9.10;99.90
